sensor_id;sensor_type;location;lat;lon;timestamp;pressure;altitude;pressure_sealevel;temperature;humidity
11395;BME280;5753;54.402;10.220;2024-02-04T00:01:03;101677.94;;;5.60;82.48
11395;BME280;5753;54.402;10.220;2024-02-04T00:03:29;101653.19;;;5.57;82.82
11395;BME280;5753;54.402;10.220;2024-02-04T00:05:56;101669.38;;;5.62;82.78
11395;BME280;5753;54.402;10.220;2024-02-04T00:08:23;101653.16;;;5.62;82.57
11395;BME280;5753;54.402;10.220;2024-02-04T00:10:50;101659.16;;;5.59;82.83
11395;BME280;5753;54.402;10.220;2024-02-04T00:13:16;101656.59;;;5.58;82.86
11395;BME280;5753;54.402;10.220;2024-02-04T00:15:43;101663.50;;;5.50;82.92
11395;BME280;5753;54.402;10.220;2024-02-04T00:18:09;101655.00;;;5.46;82.99
11395;BME280;5753;54.402;10.220;2024-02-04T00:20:36;101653.25;;;5.51;83.39
11395;BME280;5753;54.402;10.220;2024-02-04T00:23:03;101666.06;;;5.50;82.81
11395;BME280;5753;54.402;10.220;2024-02-04T00:25:29;101649.00;;;5.46;82.94
11395;BME280;5753;54.402;10.220;2024-02-04T00:27:55;101657.53;;;5.48;83.40
11395;BME280;5753;54.402;10.220;2024-02-04T00:30:22;101645.53;;;5.54;82.69
11395;BME280;5753;54.402;10.220;2024-02-04T00:32:48;101631.03;;;5.52;82.78
11395;BME280;5753;54.402;10.220;2024-02-04T00:35:16;101632.72;;;5.54;82.48
11395;BME280;5753;54.402;10.220;2024-02-04T00:37:42;101637.00;;;5.52;82.29
11395;BME280;5753;54.402;10.220;2024-02-04T00:40:09;101624.97;;;5.62;82.20
11395;BME280;5753;54.402;10.220;2024-02-04T00:42:35;101644.59;;;5.64;81.83
11395;BME280;5753;54.402;10.220;2024-02-04T00:45:02;101625.78;;;5.70;81.56
11395;BME280;5753;54.402;10.220;2024-02-04T00:47:28;101626.59;;;5.75;81.49
11395;BME280;5753;54.402;10.220;2024-02-04T00:49:54;101630.88;;;5.75;81.09
11395;BME280;5753;54.402;10.220;2024-02-04T00:52:21;101632.63;;;5.69;81.29
11395;BME280;5753;54.402;10.220;2024-02-04T00:54:48;101634.28;;;5.72;81.41
11395;BME280;5753;54.402;10.220;2024-02-04T00:57:14;101627.50;;;5.69;81.11
11395;BME280;5753;54.402;10.220;2024-02-04T00:59:40;101625.78;;;5.70;81.38
11395;BME280;5753;54.402;10.220;2024-02-04T01:02:07;101615.53;;;5.70;81.16
11395;BME280;5753;54.402;10.220;2024-02-04T01:04:34;101607.00;;;5.68;81.23
11395;BME280;5753;54.402;10.220;2024-02-04T01:07:00;101602.72;;;5.67;81.60
11395;BME280;5753;54.402;10.220;2024-02-04T01:09:29;101598.50;;;5.66;81.75
11395;BME280;5753;54.402;10.220;2024-02-04T01:11:55;101609.50;;;5.74;81.78
11395;BME280;5753;54.402;10.220;2024-02-04T01:14:21;101620.63;;;5.73;81.33
11395;BME280;5753;54.402;10.220;2024-02-04T01:16:50;101594.13;;;5.76;81.10
11395;BME280;5753;54.402;10.220;2024-02-04T01:19:17;101599.19;;;5.83;80.82
11395;BME280;5753;54.402;10.220;2024-02-04T01:21:43;101598.31;;;5.84;80.73
11395;BME280;5753;54.402;10.220;2024-02-04T01:24:10;101586.38;;;5.83;81.18
11395;BME280;5753;54.402;10.220;2024-02-04T01:26:36;101588.13;;;5.78;81.14
11395;BME280;5753;54.402;10.220;2024-02-04T01:29:02;101592.34;;;5.82;80.67
11395;BME280;5753;54.402;10.220;2024-02-04T01:31:29;101605.19;;;5.79;81.06
11395;BME280;5753;54.402;10.220;2024-02-04T01:33:55;101603.53;;;5.75;81.13
11395;BME280;5753;54.402;10.220;2024-02-04T01:36:21;101599.22;;;5.80;81.18
11395;BME280;5753;54.402;10.220;2024-02-04T01:38:49;101599.19;;;5.83;80.80
11395;BME280;5753;54.402;10.220;2024-02-04T01:41:15;101601.72;;;5.86;80.44
11395;BME280;5753;54.402;10.220;2024-02-04T01:43:43;101592.34;;;5.88;80.99
11395;BME280;5753;54.402;10.220;2024-02-04T01:46:10;101597.41;;;5.91;80.86
11395;BME280;5753;54.402;10.220;2024-02-04T01:48:38;101586.34;;;5.89;80.69
11395;BME280;5753;54.402;10.220;2024-02-04T01:51:05;101591.47;;;5.89;81.08
11395;BME280;5753;54.402;10.220;2024-02-04T01:53:34;101573.50;;;5.92;80.65
11395;BME280;5753;54.402;10.220;2024-02-04T01:56:00;101575.19;;;5.95;81.24
11395;BME280;5753;54.402;10.220;2024-02-04T01:58:27;101576.88;;;5.99;81.08
11395;BME280;5753;54.402;10.220;2024-02-04T02:00:54;101577.72;;;5.98;80.80
11395;BME280;5753;54.402;10.220;2024-02-04T02:03:23;101567.47;;;5.99;80.99
11395;BME280;5753;54.402;10.220;2024-02-04T02:05:51;101575.97;;;6.03;80.70
11395;BME280;5753;54.402;10.220;2024-02-04T02:08:19;101571.72;;;5.99;81.19
11395;BME280;5753;54.402;10.220;2024-02-04T02:10:47;101581.13;;;6.00;81.25
11395;BME280;5753;54.402;10.220;2024-02-04T02:13:29;101569.13;;;6.02;81.35
11395;BME280;5753;54.402;10.220;2024-02-04T02:16:02;101577.63;;;6.08;81.21
11395;BME280;5753;54.402;10.220;2024-02-04T02:18:49;101586.13;;;6.14;81.14
11395;BME280;5753;54.402;10.220;2024-02-04T02:24:32;101563.91;;;6.11;81.14
11395;BME280;5753;54.402;10.220;2024-02-04T02:27:00;101580.94;;;6.18;80.88
11395;BME280;5753;54.402;10.220;2024-02-04T02:29:26;101577.53;;;6.18;80.54
11395;BME280;5753;54.402;10.220;2024-02-04T02:31:52;101564.69;;;6.19;80.39
11395;BME280;5753;54.402;10.220;2024-02-04T02:34:19;101561.25;;;6.20;80.41
11395;BME280;5753;54.402;10.220;2024-02-04T02:36:50;101559.53;;;6.21;80.78
11395;BME280;5753;54.402;10.220;2024-02-04T02:39:21;101549.25;;;6.24;80.56
11395;BME280;5753;54.402;10.220;2024-02-04T02:41:50;101544.13;;;6.21;80.19
11395;BME280;5753;54.402;10.220;2024-02-04T02:44:19;101543.38;;;6.14;80.56
11395;BME280;5753;54.402;10.220;2024-02-04T02:46:47;101541.66;;;6.15;80.60
11395;BME280;5753;54.402;10.220;2024-02-04T02:49:14;101535.69;;;6.13;80.52
11395;BME280;5753;54.402;10.220;2024-02-04T02:51:41;101523.66;;;6.18;80.00
11395;BME280;5753;54.402;10.220;2024-02-04T02:54:07;101524.47;;;6.21;80.08
11395;BME280;5753;54.402;10.220;2024-02-04T02:56:34;101522.78;;;6.20;80.27
11395;BME280;5753;54.402;10.220;2024-02-04T02:59:01;101527.84;;;6.25;80.28
11395;BME280;5753;54.402;10.220;2024-02-04T03:01:31;101531.31;;;6.24;80.30
11395;BME280;5753;54.402;10.220;2024-02-04T03:03:57;101528.81;;;6.16;80.89
11395;BME280;5753;54.402;10.220;2024-02-04T03:06:23;101523.72;;;6.15;80.56
11395;BME280;5753;54.402;10.220;2024-02-04T03:08:49;101510.84;;;6.18;80.61
11395;BME280;5753;54.402;10.220;2024-02-04T03:11:16;101510.91;;;6.15;80.91
11395;BME280;5753;54.402;10.220;2024-02-04T03:13:42;101528.81;;;6.18;80.37
11395;BME280;5753;54.402;10.220;2024-02-04T03:16:12;101516.84;;;6.18;80.73
11395;BME280;5753;54.402;10.220;2024-02-04T03:18:42;101515.97;;;6.18;80.29
11395;BME280;5753;54.402;10.220;2024-02-04T03:21:16;101538.19;;;6.17;80.24
11395;BME280;5753;54.402;10.220;2024-02-04T03:23:44;101515.97;;;6.18;80.79
11395;BME280;5753;54.402;10.220;2024-02-04T03:26:11;101501.56;;;6.09;80.51
11395;BME280;5753;54.402;10.220;2024-02-04T03:28:41;101500.72;;;6.07;81.01
11395;BME280;5753;54.402;10.220;2024-02-04T03:31:07;101508.41;;;6.08;81.04
11395;BME280;5753;54.402;10.220;2024-02-04T03:33:33;101493.00;;;6.08;81.38
11395;BME280;5753;54.402;10.220;2024-02-04T03:35:59;101496.38;;;6.12;81.17
11395;BME280;5753;54.402;10.220;2024-02-04T03:38:26;101496.38;;;6.10;81.24
11395;BME280;5753;54.402;10.220;2024-02-04T03:40:52;101514.28;;;6.17;81.03
11395;BME280;5753;54.402;10.220;2024-02-04T03:43:20;101493.72;;;6.20;80.65
11395;BME280;5753;54.402;10.220;2024-02-04T03:45:48;101481.78;;;6.17;80.63
11395;BME280;5753;54.402;10.220;2024-02-04T03:48:14;101491.19;;;6.18;80.99
11395;BME280;5753;54.402;10.220;2024-02-04T03:50:41;101480.91;;;6.20;80.54
11395;BME280;5753;54.402;10.220;2024-02-04T03:53:07;101475.75;;;6.20;80.69
11395;BME280;5753;54.402;10.220;2024-02-04T03:55:34;101476.69;;;6.16;80.74
11395;BME280;5753;54.402;10.220;2024-02-04T03:58:00;101457.84;;;6.18;81.03
11395;BME280;5753;54.402;10.220;2024-02-04T04:00:26;101471.50;;;6.20;80.57
11395;BME280;5753;54.402;10.220;2024-02-04T04:02:54;101461.22;;;6.22;80.95
11395;BME280;5753;54.402;10.220;2024-02-04T04:05:20;101455.25;;;6.21;80.80
11395;BME280;5753;54.402;10.220;2024-02-04T04:07:46;101449.25;;;6.22;80.88
11395;BME280;5753;54.402;10.220;2024-02-04T04:10:15;101455.25;;;6.20;81.08
11395;BME280;5753;54.402;10.220;2024-02-04T04:12:42;101454.38;;;6.22;80.49
11395;BME280;5753;54.402;10.220;2024-02-04T04:15:08;101452.72;;;6.18;81.10
11395;BME280;5753;54.402;10.220;2024-02-04T04:17:34;101460.41;;;6.18;80.77
11395;BME280;5753;54.402;10.220;2024-02-04T04:20:01;101448.47;;;6.17;81.14
11395;BME280;5753;54.402;10.220;2024-02-04T04:22:27;101442.47;;;6.17;80.87
11395;BME280;5753;54.402;10.220;2024-02-04T04:24:54;101451.88;;;6.16;81.20
11395;BME280;5753;54.402;10.220;2024-02-04T04:27:20;101455.28;;;6.18;80.89
11395;BME280;5753;54.402;10.220;2024-02-04T04:29:47;101444.19;;;6.18;80.74
11395;BME280;5753;54.402;10.220;2024-02-04T04:32:14;101450.22;;;6.14;81.08
11395;BME280;5753;54.402;10.220;2024-02-04T04:34:40;101435.69;;;6.14;80.98
11395;BME280;5753;54.402;10.220;2024-02-04T04:37:07;101433.88;;;6.21;80.86
11395;BME280;5753;54.402;10.220;2024-02-04T04:39:33;101450.97;;;6.20;80.56
11395;BME280;5753;54.402;10.220;2024-02-04T04:41:59;101450.13;;;6.21;80.64
11395;BME280;5753;54.402;10.220;2024-02-04T04:44:26;101440.72;;;6.20;80.54
11395;BME280;5753;54.402;10.220;2024-02-04T04:46:53;101447.56;;;6.21;80.57
11395;BME280;5753;54.402;10.220;2024-02-04T04:49:19;101445.84;;;6.20;80.92
11395;BME280;5753;54.402;10.220;2024-02-04T04:51:46;101446.69;;;6.24;80.58
11395;BME280;5753;54.402;10.220;2024-02-04T04:54:13;101447.53;;;6.23;80.77
11395;BME280;5753;54.402;10.220;2024-02-04T04:56:42;101445.88;;;6.19;81.06
11395;BME280;5753;54.402;10.220;2024-02-04T04:59:09;101440.72;;;6.22;81.15
11395;BME280;5753;54.402;10.220;2024-02-04T05:01:35;101437.28;;;6.23;80.74
11395;BME280;5753;54.402;10.220;2024-02-04T05:04:02;101433.94;;;6.18;80.83
11395;BME280;5753;54.402;10.220;2024-02-04T05:06:30;101453.53;;;6.20;80.74
11395;BME280;5753;54.402;10.220;2024-02-04T05:08:57;101432.16;;;6.21;80.78
11395;BME280;5753;54.402;10.220;2024-02-04T05:11:27;101437.31;;;6.20;81.47
11395;BME280;5753;54.402;10.220;2024-02-04T05:13:57;101438.97;;;6.24;81.38
11395;BME280;5753;54.402;10.220;2024-02-04T05:16:25;101421.91;;;6.20;81.37
11395;BME280;5753;54.402;10.220;2024-02-04T05:18:52;101416.84;;;6.18;81.28
11395;BME280;5753;54.402;10.220;2024-02-04T05:21:19;101451.88;;;6.19;81.40
11395;BME280;5753;54.402;10.220;2024-02-04T05:23:45;101417.66;;;6.20;81.05
11395;BME280;5753;54.402;10.220;2024-02-04T05:26:17;101407.38;;;6.20;81.06
11395;BME280;5753;54.402;10.220;2024-02-04T05:28:45;101404.75;;;6.26;81.25
11395;BME280;5753;54.402;10.220;2024-02-04T05:31:13;101382.56;;;6.24;81.04
11395;BME280;5753;54.402;10.220;2024-02-04T05:33:44;101404.78;;;6.23;81.33
11395;BME280;5753;54.402;10.220;2024-02-04T05:36:12;101410.78;;;6.24;81.37
11395;BME280;5753;54.402;10.220;2024-02-04T05:38:44;101408.22;;;6.22;81.37
11395;BME280;5753;54.402;10.220;2024-02-04T05:41:11;101409.00;;;6.29;81.19
11395;BME280;5753;54.402;10.220;2024-02-04T05:43:38;101401.38;;;6.23;80.93
11395;BME280;5753;54.402;10.220;2024-02-04T05:46:05;101398.84;;;6.21;81.51
11395;BME280;5753;54.402;10.220;2024-02-04T05:48:31;101396.28;;;6.21;80.91
11395;BME280;5753;54.402;10.220;2024-02-04T05:50:59;101403.09;;;6.21;81.19
11395;BME280;5753;54.402;10.220;2024-02-04T05:53:25;101408.28;;;6.19;81.14
11395;BME280;5753;54.402;10.220;2024-02-04T05:55:51;101400.59;;;6.19;81.61
11395;BME280;5753;54.402;10.220;2024-02-04T05:58:17;101383.47;;;6.20;80.99
11395;BME280;5753;54.402;10.220;2024-02-04T06:00:47;101389.44;;;6.22;80.93
11395;BME280;5753;54.402;10.220;2024-02-04T06:03:13;101382.59;;;6.21;80.83
11395;BME280;5753;54.402;10.220;2024-02-04T06:05:40;101374.91;;;6.21;81.49
11395;BME280;5753;54.402;10.220;2024-02-04T06:08:07;101374.88;;;6.24;80.92
11395;BME280;5753;54.402;10.220;2024-02-04T06:10:33;101379.16;;;6.23;81.10
11395;BME280;5753;54.402;10.220;2024-02-04T06:13:01;101367.13;;;6.27;81.01
11395;BME280;5753;54.402;10.220;2024-02-04T06:15:27;101364.56;;;6.28;80.72
11395;BME280;5753;54.402;10.220;2024-02-04T06:17:55;101365.47;;;6.24;80.97
11395;BME280;5753;54.402;10.220;2024-02-04T06:20:21;101348.34;;;6.25;80.89
11395;BME280;5753;54.402;10.220;2024-02-04T06:22:48;101356.00;;;6.28;80.10
11395;BME280;5753;54.402;10.220;2024-02-04T06:25:14;101337.22;;;6.26;80.17
11395;BME280;5753;54.402;10.220;2024-02-04T06:27:40;101330.31;;;6.31;79.71
11395;BME280;5753;54.402;10.220;2024-02-04T06:30:07;101321.81;;;6.29;80.05
11395;BME280;5753;54.402;10.220;2024-02-04T06:32:33;101338.03;;;6.29;80.34
11395;BME280;5753;54.402;10.220;2024-02-04T06:35:00;101344.00;;;6.30;79.69
11395;BME280;5753;54.402;10.220;2024-02-04T06:37:26;101343.19;;;6.28;79.76
11395;BME280;5753;54.402;10.220;2024-02-04T06:39:53;101350.81;;;6.34;79.41
11395;BME280;5753;54.402;10.220;2024-02-04T06:42:19;101337.22;;;6.26;80.14
11395;BME280;5753;54.402;10.220;2024-02-04T06:44:46;101342.34;;;6.27;80.09
11395;BME280;5753;54.402;10.220;2024-02-04T06:47:15;101335.56;;;6.23;80.33
11395;BME280;5753;54.402;10.220;2024-02-04T06:49:45;101329.56;;;6.24;79.68
11395;BME280;5753;54.402;10.220;2024-02-04T06:52:11;101350.97;;;6.22;80.22
11395;BME280;5753;54.402;10.220;2024-02-04T06:54:39;101350.16;;;6.18;80.29
11395;BME280;5753;54.402;10.220;2024-02-04T06:57:06;101339.06;;;6.18;80.45
11395;BME280;5753;54.402;10.220;2024-02-04T06:59:32;101341.69;;;6.15;80.39
11395;BME280;5753;54.402;10.220;2024-02-04T07:02:00;101353.59;;;6.16;80.50
11395;BME280;5753;54.402;10.220;2024-02-04T07:04:27;101338.19;;;6.19;80.71
11395;BME280;5753;54.402;10.220;2024-02-04T07:06:55;101337.34;;;6.17;80.80
11395;BME280;5753;54.402;10.220;2024-02-04T07:09:23;101325.34;;;6.20;80.55
11395;BME280;5753;54.402;10.220;2024-02-04T07:11:49;101343.28;;;6.20;80.60
11395;BME280;5753;54.402;10.220;2024-02-04T07:14:15;101334.78;;;6.17;81.18
11395;BME280;5753;54.402;10.220;2024-02-04T07:16:42;101310.06;;;6.14;81.24
11395;BME280;5753;54.402;10.220;2024-02-04T07:19:09;101322.03;;;6.14;81.18
11395;BME280;5753;54.402;10.220;2024-02-04T07:21:36;101316.84;;;6.15;81.25
11395;BME280;5753;54.402;10.220;2024-02-04T07:24:06;101323.72;;;6.15;81.05
11395;BME280;5753;54.402;10.220;2024-02-04T07:26:34;101320.25;;;6.19;80.87
11395;BME280;5753;54.402;10.220;2024-02-04T07:29:01;101318.53;;;6.19;81.21
11395;BME280;5753;54.402;10.220;2024-02-04T07:31:27;101324.47;;;6.23;80.69
11395;BME280;5753;54.402;10.220;2024-02-04T07:33:53;101339.84;;;6.21;81.10
11395;BME280;5753;54.402;10.220;2024-02-04T07:36:19;101332.16;;;6.23;80.66
11395;BME280;5753;54.402;10.220;2024-02-04T07:38:46;101318.41;;;6.25;80.70
11395;BME280;5753;54.402;10.220;2024-02-04T07:41:15;101326.09;;;6.28;80.19
11395;BME280;5753;54.402;10.220;2024-02-04T07:43:42;101320.97;;;6.27;80.38
11395;BME280;5753;54.402;10.220;2024-02-04T07:46:10;101326.09;;;6.28;80.52
11395;BME280;5753;54.402;10.220;2024-02-04T07:48:37;101318.41;;;6.27;80.21
11395;BME280;5753;54.402;10.220;2024-02-04T07:51:04;101320.91;;;6.30;80.17
11395;BME280;5753;54.402;10.220;2024-02-04T07:53:31;101332.06;;;6.29;80.14
11395;BME280;5753;54.402;10.220;2024-02-04T07:55:57;101324.31;;;6.30;80.32
11395;BME280;5753;54.402;10.220;2024-02-04T07:58:23;101334.56;;;6.32;79.80
11395;BME280;5753;54.402;10.220;2024-02-04T08:00:49;101336.22;;;6.34;79.83
11395;BME280;5753;54.402;10.220;2024-02-04T08:03:16;101315.66;;;6.39;79.05
11395;BME280;5753;54.402;10.220;2024-02-04T08:05:42;101319.09;;;6.38;79.55
11395;BME280;5753;54.402;10.220;2024-02-04T08:08:08;101313.97;;;6.38;79.40
11395;BME280;5753;54.402;10.220;2024-02-04T08:10:36;101307.06;;;6.40;79.61
11395;BME280;5753;54.402;10.220;2024-02-04T08:13:02;101313.13;;;6.37;79.41
11395;BME280;5753;54.402;10.220;2024-02-04T08:15:28;101311.34;;;6.39;79.47
11395;BME280;5753;54.402;10.220;2024-02-04T08:17:55;101314.75;;;6.41;79.25
11395;BME280;5753;54.402;10.220;2024-02-04T08:20:22;101316.50;;;6.39;79.77
11395;BME280;5753;54.402;10.220;2024-02-04T08:22:48;101302.81;;;6.40;79.35
11395;BME280;5753;54.402;10.220;2024-02-04T08:25:15;101327.66;;;6.37;79.43
11395;BME280;5753;54.402;10.220;2024-02-04T08:27:43;101313.03;;;6.43;79.41
11395;BME280;5753;54.402;10.220;2024-02-04T08:30:10;101325.81;;;6.45;78.89
11395;BME280;5753;54.402;10.220;2024-02-04T08:32:38;101301.88;;;6.46;79.07
11395;BME280;5753;54.402;10.220;2024-02-04T08:35:05;101302.78;;;6.43;78.97
11395;BME280;5753;54.402;10.220;2024-02-04T08:37:32;101316.41;;;6.45;78.98
11395;BME280;5753;54.402;10.220;2024-02-04T08:39:59;101283.03;;;6.47;79.06
11395;BME280;5753;54.402;10.220;2024-02-04T08:42:27;101282.97;;;6.50;78.82
11395;BME280;5753;54.402;10.220;2024-02-04T08:44:53;101289.81;;;6.51;78.89
11395;BME280;5753;54.402;10.220;2024-02-04T08:47:20;101270.13;;;6.53;78.45
11395;BME280;5753;54.402;10.220;2024-02-04T08:49:46;101255.50;;;6.57;78.89
11395;BME280;5753;54.402;10.220;2024-02-04T08:52:13;101273.47;;;6.55;78.94
11395;BME280;5753;54.402;10.220;2024-02-04T08:54:41;101270.00;;;6.59;78.51
11395;BME280;5753;54.402;10.220;2024-02-04T08:57:08;101275.97;;;6.60;78.50
11395;BME280;5753;54.402;10.220;2024-02-04T08:59:36;101269.97;;;6.61;78.52
11395;BME280;5753;54.402;10.220;2024-02-04T09:02:02;101260.53;;;6.63;77.84
11395;BME280;5753;54.402;10.220;2024-02-04T09:04:28;101261.31;;;6.68;77.80
11395;BME280;5753;54.402;10.220;2024-02-04T09:06:56;101261.25;;;6.69;77.92
11395;BME280;5753;54.402;10.220;2024-02-04T09:09:23;101260.41;;;6.70;77.45
11395;BME280;5753;54.402;10.220;2024-02-04T09:11:49;101268.09;;;6.70;77.63
11395;BME280;5753;54.402;10.220;2024-02-04T09:14:16;101256.13;;;6.69;77.70
11395;BME280;5753;54.402;10.220;2024-02-04T09:16:42;101257.81;;;6.72;77.70
11395;BME280;5753;54.402;10.220;2024-02-04T09:19:09;101258.66;;;6.72;77.94
11395;BME280;5753;54.402;10.220;2024-02-04T09:21:35;101257.84;;;6.69;77.77
11395;BME280;5753;54.402;10.220;2024-02-04T09:24:01;101261.25;;;6.71;77.70
11395;BME280;5753;54.402;10.220;2024-02-04T09:26:28;101236.47;;;6.68;77.87
11395;BME280;5753;54.402;10.220;2024-02-04T09:28:54;101249.25;;;6.71;77.74
11395;BME280;5753;54.402;10.220;2024-02-04T09:31:20;101268.00;;;6.76;77.20
11395;BME280;5753;54.402;10.220;2024-02-04T09:33:47;101248.25;;;6.78;76.98
11395;BME280;5753;54.402;10.220;2024-02-04T09:36:13;101253.34;;;6.81;77.56
11395;BME280;5753;54.402;10.220;2024-02-04T09:38:40;101251.59;;;6.83;77.21
11395;BME280;5753;54.402;10.220;2024-02-04T09:41:08;101250.69;;;6.86;76.64
11395;BME280;5753;54.402;10.220;2024-02-04T09:43:38;101266.97;;;6.85;76.60
11395;BME280;5753;54.402;10.220;2024-02-04T09:46:06;101251.50;;;6.88;76.89
11395;BME280;5753;54.402;10.220;2024-02-04T09:48:34;101248.91;;;6.91;76.57
11395;BME280;5753;54.402;10.220;2024-02-04T09:51:03;101243.84;;;6.86;76.49
11395;BME280;5753;54.402;10.220;2024-02-04T09:53:34;101261.78;;;6.88;76.71
11395;BME280;5753;54.402;10.220;2024-02-04T09:56:04;101259.19;;;6.88;76.56
11395;BME280;5753;54.402;10.220;2024-02-04T09:58:32;101264.31;;;6.89;77.14
11395;BME280;5753;54.402;10.220;2024-02-04T10:01:00;101252.31;;;6.91;76.46
11395;BME280;5753;54.402;10.220;2024-02-04T10:03:27;101259.16;;;6.91;76.24
11395;BME280;5753;54.402;10.220;2024-02-04T10:05:54;101265.91;;;6.96;76.07
11395;BME280;5753;54.402;10.220;2024-02-04T10:08:22;101258.13;;;6.99;75.80
11395;BME280;5753;54.402;10.220;2024-02-04T10:10:52;101253.00;;;7.01;75.93
11395;BME280;5753;54.402;10.220;2024-02-04T10:13:21;101254.63;;;7.04;75.38
11395;BME280;5753;54.402;10.220;2024-02-04T10:15:52;101270.03;;;7.05;76.26
11395;BME280;5753;54.402;10.220;2024-02-04T10:18:18;101251.19;;;7.06;76.04
11395;BME280;5753;54.402;10.220;2024-02-04T10:20:45;101257.88;;;7.13;75.94
11395;BME280;5753;54.402;10.220;2024-02-04T10:23:11;101240.66;;;7.17;75.48
11395;BME280;5753;54.402;10.220;2024-02-04T10:25:38;101235.41;;;7.23;75.32
11395;BME280;5753;54.402;10.220;2024-02-04T10:28:05;101242.22;;;7.25;75.22
11395;BME280;5753;54.402;10.220;2024-02-04T10:30:37;101265.38;;;7.24;75.00
11395;BME280;5753;54.402;10.220;2024-02-04T10:33:03;101243.03;;;7.27;74.70
11395;BME280;5753;54.402;10.220;2024-02-04T10:35:30;101225.03;;;7.29;74.34
11395;BME280;5753;54.402;10.220;2024-02-04T10:38:00;101224.94;;;7.32;74.13
11395;BME280;5753;54.402;10.220;2024-02-04T10:40:28;101224.94;;;7.33;74.47
11395;BME280;5753;54.402;10.220;2024-02-04T10:43:00;101232.56;;;7.36;74.50
11395;BME280;5753;54.402;10.220;2024-02-04T10:45:30;101219.69;;;7.38;74.99
11395;BME280;5753;54.402;10.220;2024-02-04T10:48:01;101216.16;;;7.42;74.68
11395;BME280;5753;54.402;10.220;2024-02-04T10:50:35;101235.00;;;7.42;74.60
11395;BME280;5753;54.402;10.220;2024-02-04T10:53:05;101232.44;;;7.42;74.08
11395;BME280;5753;54.402;10.220;2024-02-04T10:55:40;101212.81;;;7.40;74.25
11395;BME280;5753;54.402;10.220;2024-02-04T10:58:10;101206.78;;;7.41;74.67
11395;BME280;5753;54.402;10.220;2024-02-04T11:00:40;101219.50;;;7.46;74.44
11395;BME280;5753;54.402;10.220;2024-02-04T11:03:07;101207.47;;;7.49;73.85
11395;BME280;5753;54.402;10.220;2024-02-04T11:05:35;101225.41;;;7.51;74.16
11395;BME280;5753;54.402;10.220;2024-02-04T11:08:03;101217.88;;;7.43;74.51
11395;BME280;5753;54.402;10.220;2024-02-04T11:10:38;101210.09;;;7.46;74.70
11395;BME280;5753;54.402;10.220;2024-02-04T11:13:05;101203.19;;;7.48;74.49
11395;BME280;5753;54.402;10.220;2024-02-04T11:15:36;101208.41;;;7.45;74.00
11395;BME280;5753;54.402;10.220;2024-02-04T11:26:33;101210.34;;;7.35;74.57
11395;BME280;5753;54.402;10.220;2024-02-04T11:29:01;101194.97;;;7.32;74.91
11395;BME280;5753;54.402;10.220;2024-02-04T11:31:29;101192.41;;;7.32;75.22
11395;BME280;5753;54.402;10.220;2024-02-04T11:33:56;101203.63;;;7.28;75.30
11395;BME280;5753;54.402;10.220;2024-02-04T11:36:26;101193.38;;;7.27;75.38
11395;BME280;5753;54.402;10.220;2024-02-04T11:38:52;101207.13;;;7.26;75.24
11395;BME280;5753;54.402;10.220;2024-02-04T11:41:25;101174.59;;;7.25;75.87
11395;BME280;5753;54.402;10.220;2024-02-04T11:43:56;101186.56;;;7.26;76.04
11395;BME280;5753;54.402;10.220;2024-02-04T11:46:31;101175.28;;;7.31;76.18
11395;BME280;5753;54.402;10.220;2024-02-04T11:49:00;101195.72;;;7.37;75.89
11395;BME280;5753;54.402;10.220;2024-02-04T11:51:26;101210.19;;;7.41;75.26
11395;BME280;5753;54.402;10.220;2024-02-04T11:53:55;101191.97;;;7.52;74.72
11395;BME280;5753;54.402;10.220;2024-02-04T11:56:23;101207.28;;;7.57;74.65
11395;BME280;5753;54.402;10.220;2024-02-04T11:58:52;101212.44;;;7.55;74.18
11395;BME280;5753;54.402;10.220;2024-02-04T12:01:21;101190.06;;;7.60;74.65
11395;BME280;5753;54.402;10.220;2024-02-04T12:03:48;101196.91;;;7.61;73.81
11395;BME280;5753;54.402;10.220;2024-02-04T12:06:15;101196.88;;;7.63;74.26
11395;BME280;5753;54.402;10.220;2024-02-04T12:08:42;101178.13;;;7.59;74.04
11395;BME280;5753;54.402;10.220;2024-02-04T12:11:09;101201.34;;;7.55;74.31
11395;BME280;5753;54.402;10.220;2024-02-04T12:13:40;101188.41;;;7.59;74.63
11395;BME280;5753;54.402;10.220;2024-02-04T12:16:07;101191.72;;;7.64;74.32
11395;BME280;5753;54.402;10.220;2024-02-04T12:18:36;101187.47;;;7.62;74.75
11395;BME280;5753;54.402;10.220;2024-02-04T12:21:13;101193.78;;;7.49;75.11
11395;BME280;5753;54.402;10.220;2024-02-04T12:23:40;101208.41;;;7.45;75.51
11395;BME280;5753;54.402;10.220;2024-02-04T12:26:06;101194.72;;;7.45;75.48
11395;BME280;5753;54.402;10.220;2024-02-04T12:28:32;101195.59;;;7.43;75.75
11395;BME280;5753;54.402;10.220;2024-02-04T12:30:59;101195.59;;;7.43;75.61
11395;BME280;5753;54.402;10.220;2024-02-04T12:33:26;101202.44;;;7.45;75.33
11395;BME280;5753;54.402;10.220;2024-02-04T12:35:52;101198.91;;;7.49;75.85
11395;BME280;5753;54.402;10.220;2024-02-04T12:38:22;101190.34;;;7.50;75.32
11395;BME280;5753;54.402;10.220;2024-02-04T12:40:49;101188.63;;;7.49;75.76
11395;BME280;5753;54.402;10.220;2024-02-04T12:43:16;101181.78;;;7.49;75.48
11395;BME280;5753;54.402;10.220;2024-02-04T12:45:43;101169.78;;;7.50;75.25
11395;BME280;5753;54.402;10.220;2024-02-04T12:48:09;101178.22;;;7.55;75.29
11395;BME280;5753;54.402;10.220;2024-02-04T12:50:40;101167.13;;;7.53;75.49
11395;BME280;5753;54.402;10.220;2024-02-04T12:53:09;101171.31;;;7.57;75.23
11395;BME280;5753;54.402;10.220;2024-02-04T12:55:39;101178.25;;;7.53;75.14
11395;BME280;5753;54.402;10.220;2024-02-04T12:58:10;101200.56;;;7.51;74.84
11395;BME280;5753;54.402;10.220;2024-02-04T13:00:46;101180.81;;;7.55;75.27
11395;BME280;5753;54.402;10.220;2024-02-04T13:03:16;101174.75;;;7.56;74.60
11395;BME280;5753;54.402;10.220;2024-02-04T13:05:45;101189.31;;;7.55;75.41
11395;BME280;5753;54.402;10.220;2024-02-04T13:08:12;101183.31;;;7.56;75.06
11395;BME280;5753;54.402;10.220;2024-02-04T13:10:39;101172.97;;;7.59;75.50
11395;BME280;5753;54.402;10.220;2024-02-04T13:13:13;101166.94;;;7.60;75.18